createdAt,value
2018-10-19T00:00:42.882Z,80.35
2018-10-19T00:01:42.889Z,80.44
2018-10-19T00:02:43.028Z,80.25
2018-10-19T00:03:43.171Z,80.63
2018-10-19T00:04:43.301Z,80.73
2018-10-19T00:05:43.435Z,80.63
2018-10-19T00:06:43.575Z,80.82
2018-10-19T00:07:43.710Z,80.44
2018-10-19T00:08:43.856Z,80.25
2018-10-19T00:09:44.003Z,80.25
2018-10-19T00:10:44.147Z,80.25
2018-10-19T00:11:44.286Z,80.73
2018-10-19T00:12:44.452Z,80.73
2018-10-19T00:13:44.566Z,80.63
2018-10-19T00:14:44.722Z,80.44
2018-10-19T00:15:44.846Z,80.82
2018-10-19T00:16:44.985Z,80.54
2018-10-19T00:17:45.129Z,80.63
2018-10-19T00:18:45.270Z,80.54
2018-10-19T00:19:45.397Z,80.63
2018-10-19T00:20:45.535Z,80.44
2018-10-19T00:21:45.672Z,80.35
2018-10-19T00:22:45.835Z,80.73
2018-10-19T00:23:45.963Z,80.82
2018-10-19T00:24:46.104Z,80.63
2018-10-19T00:25:46.282Z,80.44
2018-10-19T00:26:46.410Z,80.25
2018-10-19T00:27:46.548Z,80.35
2018-10-19T00:28:46.691Z,80.54
2018-10-19T00:29:46.856Z,80.16
2018-10-19T00:30:47.076Z,80.16
2018-10-19T00:31:47.084Z,80.54
2018-10-19T00:32:47.224Z,80.44
2018-10-19T00:33:47.388Z,80.44
2018-10-19T00:34:47.497Z,80.44
2018-10-19T00:35:47.641Z,80.44
2018-10-19T00:36:47.804Z,80.25
2018-10-19T00:37:47.909Z,80.54
2018-10-19T00:38:48.050Z,80.63
2018-10-19T00:39:48.180Z,80.54
2018-10-19T00:40:48.311Z,80.44
2018-10-19T00:41:48.443Z,80.92
2018-10-19T00:42:48.581Z,81.30
2018-10-19T00:43:48.718Z,80.63
2018-10-19T00:44:48.853Z,81.30
2018-10-19T00:45:49.031Z,80.82
2018-10-19T00:46:49.145Z,81.21
2018-10-19T00:47:49.275Z,80.73
2018-10-19T00:48:49.413Z,81.02
2018-10-19T00:49:49.570Z,81.11
2018-10-19T00:50:49.702Z,81.30
2018-10-19T00:51:49.842Z,81.02
2018-10-19T00:52:49.972Z,81.11
2018-10-19T00:53:50.133Z,80.92
2018-10-19T00:54:50.272Z,80.73
2018-10-19T00:55:50.414Z,80.92
2018-10-19T00:56:50.546Z,81.11
2018-10-19T00:57:50.759Z,81.02
2018-10-19T00:58:50.870Z,80.73
2018-10-19T00:59:51.003Z,81.49
2018-10-19T01:00:51.135Z,81.49
2018-10-19T01:01:51.303Z,81.49
2018-10-19T01:02:51.446Z,81.11
2018-10-19T01:03:51.589Z,81.40
2018-10-19T01:04:51.716Z,81.49
2018-10-19T01:05:51.850Z,81.40
2018-10-19T01:06:52.037Z,81.40
2018-10-19T01:07:52.168Z,81.30
2018-10-19T01:08:52.311Z,81.21
2018-10-19T01:09:52.495Z,81.11
2018-10-19T01:10:52.627Z,81.02
2018-10-19T01:11:52.769Z,81.02
2018-10-19T01:12:52.900Z,81.02
2018-10-19T01:13:53.062Z,81.02
2018-10-19T01:14:53.244Z,81.21
2018-10-19T01:15:53.333Z,81.21
2018-10-19T01:16:53.478Z,81.97
2018-10-19T01:17:53.623Z,81.59
2018-10-19T01:18:53.753Z,81.59
2018-10-19T01:19:53.888Z,81.59
2018-10-19T01:20:54.069Z,81.49
2018-10-19T01:21:54.251Z,81.59
2018-10-19T01:22:54.313Z,81.21
2018-10-19T01:23:54.401Z,82.07
2018-10-19T01:24:54.533Z,81.97
2018-10-19T01:25:54.663Z,81.88
2018-10-19T01:26:54.847Z,81.11
2018-10-19T01:27:54.950Z,81.78
2018-10-19T01:28:55.091Z,81.78
2018-10-19T01:29:55.216Z,81.78
2018-10-19T01:30:55.351Z,81.78
2018-10-19T01:31:55.492Z,81.88
2018-10-19T01:32:55.720Z,81.97
2018-10-19T01:33:55.796Z,81.40
2018-10-19T01:34:55.931Z,81.78
2018-10-19T01:35:56.060Z,81.68
2018-10-19T01:36:56.209Z,81.40
2018-10-19T01:37:56.342Z,82.07
2018-10-19T01:38:56.528Z,81.40
2018-10-19T01:39:56.613Z,82.17
2018-10-19T01:40:56.768Z,82.26
2018-10-19T01:41:56.898Z,81.97
2018-10-19T01:42:57.039Z,82.07
2018-10-19T01:43:57.173Z,82.17
2018-10-19T01:44:57.363Z,82.26
2018-10-19T01:45:57.447Z,82.45
2018-10-19T01:46:57.622Z,83.17
2018-10-19T01:47:57.749Z,82.79
2018-10-19T01:48:57.886Z,82.41
2018-10-19T01:49:58.018Z,82.89
2018-10-19T01:50:58.190Z,82.51
2018-10-19T01:51:58.302Z,82.79
2018-10-19T01:52:58.489Z,82.51
2018-10-19T01:53:58.578Z,83.03
2018-10-19T01:54:58.735Z,82.64
2018-10-19T01:55:58.867Z,82.64
2018-10-19T01:56:59.009Z,83.40
2018-10-19T01:57:59.143Z,83.17
2018-10-19T01:58:59.282Z,83.50
2018-10-19T01:59:59.410Z,83.60
2018-10-19T02:00:59.554Z,83.31
2018-10-19T02:01:59.686Z,83.46
2018-10-19T02:02:59.870Z,83.75
2018-10-19T02:03:59.967Z,83.65
2018-10-19T02:05:00.182Z,83.75
2018-10-19T02:06:00.245Z,83.22
2018-10-19T02:07:00.376Z,82.93
2018-10-19T02:08:00.512Z,82.93
2018-10-19T02:09:00.704Z,83.12
2018-10-19T02:10:00.785Z,83.03
2018-10-19T02:11:00.936Z,83.22
2018-10-19T02:12:01.055Z,83.60
2018-10-19T02:13:01.218Z,83.22
2018-10-19T02:14:01.325Z,83.50
2018-10-19T02:15:02.179Z,83.50
2018-10-19T02:16:01.627Z,83.40
2018-10-19T02:17:01.773Z,83.40
2018-10-19T02:18:01.909Z,83.03
2018-10-19T02:19:02.045Z,83.31
2018-10-19T02:20:02.172Z,83.40
2018-10-19T02:21:02.378Z,83.79
2018-10-19T02:22:02.460Z,83.65
2018-10-19T02:23:02.649Z,83.56
2018-10-19T02:24:02.731Z,84.13
2018-10-19T02:25:02.868Z,85.05
2018-10-19T02:26:03.008Z,85.24
2018-10-19T02:27:03.164Z,85.42
2018-10-19T02:28:03.284Z,85.42
2018-10-19T02:29:03.445Z,85.62
2018-10-19T02:30:03.560Z,85.62
2018-10-19T02:31:03.698Z,85.71
2018-10-19T02:32:03.835Z,85.38
2018-10-19T02:33:04.009Z,85.33
2018-10-19T02:34:04.121Z,85.57
2018-10-19T02:35:04.367Z,85.47
2018-10-19T02:36:04.349Z,85.28
2018-10-19T02:37:04.486Z,84.89
2018-10-19T02:38:04.625Z,84.89
2018-10-19T02:39:04.831Z,84.52
2018-10-19T02:40:04.888Z,84.13
2018-10-19T02:41:05.034Z,83.94
2018-10-19T02:42:05.159Z,84.13
2018-10-19T02:43:05.291Z,84.23
2018-10-19T02:44:05.432Z,84.13
2018-10-19T02:45:05.582Z,83.79
2018-10-19T02:46:05.760Z,83.75
2018-10-19T02:47:05.909Z,83.69
2018-10-19T02:48:06.018Z,83.27
2018-10-19T02:49:06.156Z,83.50
2018-10-19T02:50:06.291Z,83.69
2018-10-19T02:51:06.495Z,83.75
2018-10-19T02:52:06.572Z,83.79
2018-10-19T02:53:06.759Z,83.40
2018-10-19T02:54:06.846Z,83.31
2018-10-19T02:55:06.981Z,83.40
2018-10-19T02:56:07.115Z,83.69
2018-10-19T02:57:07.353Z,83.60
2018-10-19T02:58:07.424Z,83.40
2018-10-19T02:59:07.589Z,83.31
2018-10-19T03:00:07.736Z,83.40
2018-10-19T03:01:07.890Z,82.83
2018-10-19T03:02:08.002Z,83.40
2018-10-19T03:03:08.165Z,82.93
2018-10-19T03:04:08.302Z,82.93
2018-10-19T03:05:08.497Z,83.50
2018-10-19T03:06:08.571Z,83.69
2018-10-19T03:07:08.724Z,83.60
2018-10-19T03:08:08.882Z,83.69
2018-10-19T03:09:09.092Z,83.69
2018-10-19T03:10:09.147Z,83.79
2018-10-19T03:11:09.346Z,83.69
2018-10-19T03:12:09.412Z,83.40
2018-10-19T03:13:09.547Z,83.60
2018-10-19T03:14:09.683Z,83.79
2018-10-19T03:15:09.954Z,83.03
2018-10-19T03:16:10.754Z,82.93
2018-10-19T03:17:10.158Z,83.22
2018-10-19T03:18:10.209Z,82.93
2018-10-19T03:19:10.341Z,83.22
2018-10-19T03:20:10.477Z,83.12
2018-10-19T03:21:10.648Z,82.83
2018-10-19T03:22:10.747Z,82.74
2018-10-19T03:23:10.968Z,83.03
2018-10-19T03:24:11.020Z,83.03
2018-10-19T03:25:11.165Z,83.31
2018-10-19T03:26:11.315Z,82.83
2018-10-19T03:27:11.522Z,82.54
2018-10-19T03:28:11.575Z,82.74
2018-10-19T03:29:11.814Z,82.93
2018-10-19T03:30:11.910Z,82.83
2018-10-19T03:31:12.073Z,82.93
2018-10-19T03:32:12.150Z,83.12
2018-10-19T03:33:12.303Z,83.22
2018-10-19T03:34:12.451Z,83.03
2018-10-19T03:35:12.677Z,82.74
2018-10-19T03:36:12.719Z,83.12
2018-10-19T03:37:12.864Z,83.03
2018-10-19T03:38:13.025Z,83.31
2018-10-19T03:39:13.199Z,83.31
2018-10-19T03:40:13.295Z,83.03
2018-10-19T03:41:13.478Z,83.60
2018-10-19T03:42:13.593Z,83.60
2018-10-19T03:43:13.711Z,83.60
2018-10-19T03:44:13.852Z,83.50
2018-10-19T03:45:14.089Z,83.50
2018-10-19T03:46:14.160Z,83.31
2018-10-19T03:47:14.367Z,83.60
2018-10-19T03:48:15.048Z,83.60
2018-10-19T03:49:14.633Z,83.69
2018-10-19T03:50:14.705Z,83.60
2018-10-19T03:51:15.487Z,83.69
2018-10-19T03:52:14.964Z,83.40
2018-10-19T03:53:15.249Z,83.60
2018-10-19T03:54:15.238Z,83.40
2018-10-19T03:55:15.371Z,83.89
2018-10-19T03:56:15.507Z,83.60
2018-10-19T03:57:15.679Z,83.12
2018-10-19T03:58:15.774Z,83.69
2018-10-19T03:59:15.969Z,83.79
2018-10-19T04:00:16.050Z,84.36
2018-10-19T04:01:16.186Z,83.31
2018-10-19T04:02:16.341Z,83.31
2018-10-19T04:03:16.557Z,83.75
2018-10-19T04:04:16.617Z,84.32
2018-10-19T04:05:16.783Z,84.55
2018-10-19T04:06:16.885Z,84.46
2018-10-19T04:07:17.031Z,84.75
2018-10-19T04:08:17.166Z,84.42
2018-10-19T04:09:17.339Z,84.36
2018-10-19T04:10:17.438Z,84.46
2018-10-19T04:11:17.635Z,84.36
2018-10-19T04:12:18.436Z,84.55
2018-10-19T04:14:50.198Z,84.17
2018-10-19T04:15:50.193Z,84.17
2018-10-19T04:16:50.330Z,84.55
2018-10-19T04:17:51.373Z,84.75
2018-10-19T04:18:50.595Z,84.46
2018-10-19T04:19:50.725Z,84.46
2018-10-19T04:20:50.866Z,84.46
2018-10-19T04:21:51.006Z,84.46
2018-10-19T04:22:51.165Z,85.22
2018-10-19T04:23:51.403Z,84.94
2018-10-19T04:24:51.412Z,85.03
2018-10-19T04:25:51.550Z,84.84
2018-10-19T04:26:51.689Z,84.94
2018-10-19T04:27:51.820Z,84.94
2018-10-19T04:28:51.960Z,84.84
2018-10-19T04:29:52.107Z,84.94
2018-10-19T04:30:52.281Z,84.94
2018-10-19T04:31:52.413Z,84.94
2018-10-19T04:32:52.568Z,84.55
2018-10-19T04:33:52.738Z,84.75
2018-10-19T04:34:52.923Z,84.75
2018-10-19T04:35:53.005Z,84.94
2018-10-19T04:36:53.144Z,84.94
2018-10-19T04:37:53.280Z,84.46
2018-10-19T04:38:53.414Z,84.94
2018-10-19T04:39:53.549Z,84.84
2018-10-19T04:40:53.718Z,84.46
2018-10-19T04:41:53.940Z,84.36
2018-10-19T04:42:53.990Z,84.36
2018-10-19T04:43:54.138Z,84.55
2018-10-19T04:44:54.353Z,84.75
2018-10-19T04:45:54.413Z,84.75
2018-10-19T04:46:54.584Z,84.55
2018-10-19T04:47:54.694Z,84.36
2018-10-19T04:48:54.823Z,84.27
2018-10-19T04:49:54.961Z,84.17
2018-10-19T04:50:55.160Z,84.75
2018-10-19T04:51:55.239Z,84.65
2018-10-19T04:52:55.381Z,84.08
2018-10-19T04:53:55.516Z,83.98
2018-10-19T04:54:55.670Z,84.08
2018-10-19T04:55:55.801Z,83.98
2018-10-19T04:56:55.989Z,84.08
2018-10-19T04:57:56.099Z,84.08
2018-10-19T04:58:57.110Z,83.98
2018-10-19T04:59:56.342Z,84.17
2018-10-19T05:00:56.477Z,84.52
2018-10-19T05:01:56.613Z,84.52
2018-10-19T05:02:56.748Z,84.42
2018-10-19T05:03:56.880Z,84.89
2018-10-19T05:04:57.039Z,85.03
2018-10-19T05:05:57.262Z,84.55
2018-10-19T05:06:57.292Z,84.94
2018-10-19T05:07:57.480Z,84.89
2018-10-19T05:08:57.569Z,85.13
2018-10-19T05:09:57.700Z,84.80
2018-10-19T05:10:57.849Z,84.99
2018-10-19T05:11:57.999Z,84.99
2018-10-19T05:12:58.241Z,85.47
2018-10-19T05:13:58.327Z,85.28
2018-10-19T05:14:58.415Z,85.57
2018-10-19T05:15:58.545Z,84.99
2018-10-19T05:16:58.680Z,85.57
2018-10-19T05:17:58.815Z,85.09
2018-10-19T05:18:58.948Z,85.18
2018-10-19T05:19:59.091Z,85.75
2018-10-19T05:20:59.223Z,85.57
2018-10-19T05:21:59.361Z,85.57
2018-10-19T05:22:59.553Z,85.57
2018-10-19T05:23:59.634Z,85.57
2018-10-19T05:24:59.769Z,84.89
2018-10-19T05:25:59.931Z,85.66
2018-10-19T05:27:00.046Z,85.47
2018-10-19T05:28:00.223Z,85.09
2018-10-19T05:29:00.388Z,85.57
2018-10-19T05:30:00.496Z,85.94
2018-10-19T05:31:00.659Z,85.75
2018-10-19T05:32:00.810Z,85.75
2018-10-19T05:33:00.966Z,85.94
2018-10-19T05:34:01.063Z,86.04
2018-10-19T05:35:01.233Z,85.38
2018-10-19T05:36:01.350Z,86.04
2018-10-19T05:37:01.492Z,85.75
2018-10-19T05:38:01.685Z,85.66
2018-10-19T05:39:01.767Z,85.75
2018-10-19T05:40:01.902Z,85.61
2018-10-19T05:41:02.083Z,85.85
2018-10-19T05:42:02.173Z,85.94
2018-10-19T05:43:02.306Z,85.75
2018-10-19T05:44:02.493Z,85.41
2018-10-19T05:45:02.567Z,85.61
2018-10-19T05:46:02.698Z,86.14
2018-10-19T05:47:02.894Z,86.61
2018-10-19T05:48:02.966Z,86.52
2018-10-19T05:49:03.107Z,86.47
2018-10-19T05:50:03.262Z,86.57
2018-10-19T05:51:03.380Z,86.04
2018-10-19T05:52:03.523Z,85.89
2018-10-19T05:53:03.676Z,86.47
2018-10-19T05:54:03.799Z,86.37
2018-10-19T05:55:03.934Z,86.76
2018-10-19T05:56:04.146Z,86.57
2018-10-19T05:57:04.213Z,86.37
2018-10-19T05:58:04.350Z,86.28
2018-10-19T05:59:04.517Z,86.08
2018-10-19T06:00:04.628Z,86.18
2018-10-19T06:01:04.764Z,86.85
2018-10-19T06:02:04.960Z,86.37
2018-10-19T06:03:05.041Z,85.89
2018-10-19T06:04:05.165Z,86.18
2018-10-19T06:05:05.359Z,86.08
2018-10-19T06:06:05.440Z,86.66
2018-10-19T06:07:05.571Z,86.57
2018-10-19T06:08:05.731Z,86.57
2018-10-19T06:09:05.853Z,86.66
2018-10-19T06:10:06.740Z,86.57
2018-10-19T06:11:06.195Z,86.57
2018-10-19T06:12:06.281Z,86.47
2018-10-19T06:13:06.443Z,86.47
2018-10-19T06:14:06.643Z,86.66
2018-10-19T06:15:06.719Z,86.66
2018-10-19T06:16:06.850Z,86.37
2018-10-19T06:17:07.013Z,85.89
2018-10-19T06:18:07.128Z,86.66
2018-10-19T06:19:07.266Z,86.76
2018-10-19T06:20:07.414Z,86.76
2018-10-19T06:21:07.591Z,86.57
2018-10-19T06:22:07.670Z,86.66
2018-10-19T06:23:07.855Z,86.66
2018-10-19T06:24:07.950Z,86.37
2018-10-19T06:25:08.086Z,85.99
2018-10-19T06:26:08.417Z,86.18
2018-10-19T06:27:08.365Z,86.37
2018-10-19T06:28:08.497Z,86.37
2018-10-19T06:29:08.686Z,86.47
2018-10-19T06:30:08.773Z,86.28
2018-10-19T06:31:08.905Z,86.57
2018-10-19T06:32:09.108Z,85.99
2018-10-19T06:33:09.177Z,86.47
2018-10-19T06:34:09.309Z,86.28
2018-10-19T06:35:09.520Z,86.18
2018-10-19T06:36:09.577Z,86.18
2018-10-19T06:37:09.711Z,86.66
2018-10-19T06:38:09.914Z,86.28
2018-10-19T06:39:09.989Z,86.18
2018-10-19T06:40:10.125Z,86.08
2018-10-19T06:41:10.335Z,86.57
2018-10-19T06:42:10.408Z,86.37
2018-10-19T06:43:10.552Z,86.41
2018-10-19T06:44:11.792Z,86.28
2018-10-19T06:45:10.772Z,85.99
2018-10-19T06:46:10.910Z,86.80
2018-10-19T06:47:11.140Z,86.70
2018-10-19T06:48:11.188Z,87.04
2018-10-19T06:49:11.338Z,86.76
2018-10-19T06:50:11.523Z,86.99
2018-10-19T06:51:11.590Z,86.80
2018-10-19T06:52:11.736Z,86.70
2018-10-19T06:53:11.933Z,86.70
2018-10-19T06:54:12.002Z,86.41
2018-10-19T06:55:12.132Z,86.70
2018-10-19T06:56:12.346Z,86.80
2018-10-19T06:57:12.416Z,86.13
2018-10-19T06:58:12.546Z,86.41
2018-10-19T06:59:12.754Z,86.22
2018-10-19T07:00:12.827Z,86.51
2018-10-19T07:01:12.969Z,86.70
2018-10-19T07:02:13.152Z,87.18
2018-10-19T07:03:13.236Z,86.90
2018-10-19T07:04:13.374Z,87.08
2018-10-19T07:05:13.620Z,86.61
2018-10-19T07:06:13.761Z,86.70
2018-10-19T07:07:13.784Z,86.80
2018-10-19T07:08:13.930Z,86.41
2018-10-19T07:09:14.063Z,86.61
2018-10-19T07:10:14.209Z,86.90
2018-10-19T07:11:14.413Z,86.99
2018-10-19T07:12:14.540Z,87.27
2018-10-19T07:13:14.604Z,86.61
2018-10-19T07:14:14.778Z,86.70
2018-10-19T07:15:14.894Z,86.70
2018-10-19T07:16:15.027Z,86.51
2018-10-19T07:17:15.247Z,86.32
2018-10-19T07:18:15.302Z,86.13
2018-10-19T07:19:15.445Z,86.13
2018-10-19T07:20:15.602Z,86.22
2018-10-19T07:21:15.712Z,86.22
2018-10-19T07:22:15.853Z,86.13
2018-10-19T07:23:16.051Z,86.32
2018-10-19T07:24:16.125Z,86.22
2018-10-19T07:25:16.263Z,86.51
2018-10-19T07:26:16.407Z,86.99
2018-10-19T07:27:16.534Z,86.99
2018-10-19T07:28:16.667Z,86.70
2018-10-19T07:29:16.866Z,87.18
2018-10-19T07:30:16.943Z,87.18
2018-10-19T07:31:17.073Z,87.18
2018-10-19T07:32:17.204Z,86.99
2018-10-19T07:33:17.339Z,86.90
2018-10-19T07:34:17.486Z,87.18
2018-10-19T07:35:17.684Z,87.27
2018-10-19T07:36:17.808Z,87.27
2018-10-19T07:37:17.898Z,87.76
2018-10-19T07:38:18.037Z,87.56
2018-10-19T07:39:18.252Z,87.76
2018-10-19T07:40:18.258Z,87.47
2018-10-19T07:41:18.404Z,87.95
2018-10-19T07:42:18.617Z,87.47
2018-10-19T07:43:18.682Z,87.18
2018-10-19T07:44:18.817Z,86.80
2018-10-19T07:45:18.951Z,86.80
2018-10-19T07:46:19.084Z,87.27
2018-10-19T07:47:19.373Z,87.47
2018-10-19T07:48:19.402Z,87.47
2018-10-19T07:49:19.491Z,87.66
2018-10-19T07:50:19.636Z,87.85
2018-10-19T07:51:19.766Z,87.37
2018-10-19T07:52:19.916Z,88.13
2018-10-19T07:53:20.041Z,88.52
2018-10-19T07:54:20.182Z,88.81
2018-10-19T07:55:20.315Z,88.04
2018-10-19T07:56:20.451Z,87.76
2018-10-19T07:57:20.589Z,88.43
2018-10-19T07:58:20.725Z,87.66
2018-10-19T07:59:20.863Z,88.13
2018-10-19T08:00:21.029Z,88.23
2018-10-19T08:01:21.143Z,88.23
2018-10-19T08:02:21.280Z,88.04
2018-10-19T08:03:21.412Z,88.04
2018-10-19T08:04:21.554Z,87.76
2018-10-19T08:05:21.693Z,87.41
2018-10-19T08:06:21.842Z,87.66
2018-10-19T08:07:21.969Z,87.95
2018-10-19T08:08:22.120Z,88.04
2018-10-19T08:09:22.260Z,88.13
2018-10-19T08:10:23.253Z,87.85
2018-10-19T08:12:54.921Z,87.61
2018-10-19T08:13:55.061Z,87.70
2018-10-19T08:14:55.205Z,87.47
2018-10-19T08:15:55.343Z,87.80
2018-10-19T08:16:55.504Z,87.76
2018-10-19T08:17:55.624Z,87.85
2018-10-19T08:18:55.758Z,87.70
2018-10-19T08:19:55.901Z,87.61
2018-10-19T08:20:56.096Z,87.61
2018-10-19T08:21:56.182Z,87.80
2018-10-19T08:22:56.372Z,87.70
2018-10-19T08:23:56.459Z,87.41
2018-10-19T08:24:56.598Z,87.27
2018-10-19T08:25:56.773Z,87.85
2018-10-19T08:26:56.864Z,87.76
2018-10-19T08:27:56.997Z,87.76
2018-10-19T08:28:57.143Z,87.85
2018-10-19T08:29:57.278Z,87.85
2018-10-19T08:30:57.416Z,88.18
2018-10-19T08:31:57.586Z,87.37
2018-10-19T08:32:57.688Z,88.33
2018-10-19T08:33:57.828Z,88.33
2018-10-19T08:34:57.976Z,88.23
2018-10-19T08:35:58.102Z,88.33
2018-10-19T08:36:58.245Z,88.76
2018-10-19T08:37:58.379Z,88.04
2018-10-19T08:38:58.529Z,88.28
2018-10-19T08:39:58.650Z,88.09
2018-10-19T08:40:58.794Z,88.13
2018-10-19T08:41:58.937Z,87.32
2018-10-19T08:42:59.109Z,87.27
2018-10-19T08:43:59.198Z,87.80
2018-10-19T08:44:59.342Z,88.43
2018-10-19T08:45:59.467Z,87.85
2018-10-19T08:46:59.654Z,87.99
2018-10-19T08:47:59.740Z,88.33
2018-10-19T08:48:59.922Z,88.43
2018-10-19T08:50:00.008Z,87.76
2018-10-19T08:51:00.162Z,88.62
2018-10-19T08:52:00.279Z,88.81
2018-10-19T08:53:01.112Z,88.81
2018-10-19T08:54:00.622Z,88.81
2018-10-19T08:55:00.829Z,88.04
2018-10-19T08:56:00.914Z,88.90
2018-10-19T08:57:01.107Z,88.33
2018-10-19T08:58:01.246Z,88.43
2018-10-19T08:59:01.364Z,88.62
2018-10-19T09:00:01.485Z,88.23
2018-10-19T09:01:01.611Z,88.13
2018-10-19T09:02:01.740Z,87.95
2018-10-19T09:03:02.626Z,87.95
2018-10-19T09:04:02.014Z,88.13
2018-10-19T09:05:02.132Z,88.13
2018-10-19T09:06:02.291Z,88.18
2018-10-19T09:07:02.409Z,88.04
2018-10-19T09:08:02.546Z,88.37
2018-10-19T09:09:02.740Z,88.04
2018-10-19T09:10:02.824Z,88.04
2018-10-19T09:11:03.078Z,87.76
2018-10-19T09:12:03.102Z,87.51
2018-10-19T09:13:03.240Z,87.51
2018-10-19T09:14:03.377Z,87.61
2018-10-19T09:15:03.523Z,87.66
2018-10-19T09:16:03.657Z,87.99
2018-10-19T09:17:03.843Z,87.90
2018-10-19T09:18:03.932Z,87.23
2018-10-19T09:19:04.062Z,87.03
2018-10-19T09:20:04.203Z,87.23
2018-10-19T09:21:04.379Z,87.03
2018-10-19T09:22:04.473Z,87.13
2018-10-19T09:23:04.676Z,86.74
2018-10-19T09:24:04.755Z,86.84
2018-10-19T09:25:04.898Z,86.94
2018-10-19T09:26:05.036Z,86.65
2018-10-19T09:27:05.207Z,86.46
2018-10-19T09:28:05.308Z,86.74
2018-10-19T09:29:05.482Z,86.08
2018-10-19T09:30:05.610Z,85.88
2018-10-19T09:31:05.743Z,85.98
2018-10-19T09:32:05.881Z,85.69
2018-10-19T09:33:06.076Z,86.27
2018-10-19T09:34:06.188Z,86.17
2018-10-19T09:35:06.350Z,85.88
2018-10-19T09:36:06.491Z,86.08
2018-10-19T09:37:06.617Z,86.46
2018-10-19T09:38:06.748Z,86.46
2018-10-19T09:39:06.891Z,86.36
2018-10-19T09:40:07.108Z,86.08
2018-10-19T09:41:07.241Z,85.79
2018-10-19T09:42:07.384Z,85.69
2018-10-19T09:43:07.626Z,85.60
2018-10-19T09:44:07.569Z,85.60
2018-10-19T09:45:07.766Z,85.50
2018-10-19T09:46:08.580Z,85.79
2018-10-19T09:47:08.125Z,85.98
2018-10-19T09:48:08.117Z,86.08
2018-10-19T09:49:08.279Z,85.41
2018-10-19T09:50:08.392Z,85.79
2018-10-19T09:51:08.591Z,85.98
2018-10-19T09:52:08.657Z,85.93
2018-10-19T09:53:08.905Z,85.83
2018-10-19T09:54:08.935Z,85.45
2018-10-19T09:55:09.120Z,85.64
2018-10-19T09:56:09.262Z,85.74
2018-10-19T09:57:09.351Z,85.74
2018-10-19T09:58:09.478Z,85.54
2018-10-19T09:59:09.729Z,84.78
2018-10-19T10:00:09.751Z,85.16
2018-10-19T10:01:09.907Z,85.74
2018-10-19T10:02:10.067Z,85.16
2018-10-19T10:03:10.190Z,84.58
2018-10-19T10:04:10.295Z,84.20
2018-10-19T10:05:10.470Z,84.01
2018-10-19T10:06:10.634Z,84.20
2018-10-19T10:07:10.882Z,83.63
2018-10-19T10:08:10.911Z,83.82
2018-10-19T10:09:11.739Z,83.92
2018-10-19T10:10:11.215Z,84.39
2018-10-19T10:11:11.463Z,83.63
2018-10-19T10:12:11.490Z,83.82
2018-10-19T10:13:11.692Z,83.92
2018-10-19T10:14:11.767Z,83.72
2018-10-19T10:15:11.982Z,83.72
2018-10-19T10:16:12.039Z,84.11
2018-10-19T10:17:12.276Z,83.34
2018-10-19T10:18:12.362Z,83.82
2018-10-19T10:19:12.569Z,83.72
2018-10-19T10:20:12.640Z,83.53
2018-10-19T10:21:12.784Z,83.76
2018-10-19T10:22:12.996Z,82.81
2018-10-19T10:23:13.058Z,82.52
2018-10-19T10:24:13.205Z,82.71
2018-10-19T10:25:13.429Z,82.71
2018-10-19T10:26:13.503Z,82.90
2018-10-19T10:27:13.641Z,83.00
2018-10-19T10:28:13.839Z,83.38
2018-10-19T10:29:13.917Z,83.00
2018-10-19T10:30:14.051Z,82.14
2018-10-19T10:31:14.314Z,82.14
2018-10-19T10:32:14.339Z,82.14
2018-10-19T10:33:14.465Z,82.23
2018-10-19T10:34:14.658Z,81.75
2018-10-19T10:35:14.764Z,81.75
2018-10-19T10:36:14.886Z,82.04
2018-10-19T10:37:15.051Z,81.85
2018-10-19T10:38:15.162Z,81.18
2018-10-19T10:39:15.407Z,81.98
2018-10-19T10:40:15.506Z,82.18
2018-10-19T10:41:15.577Z,81.98
2018-10-19T10:42:15.722Z,81.98
2018-10-19T10:43:15.976Z,81.79
2018-10-19T10:44:16.009Z,81.79
2018-10-19T10:45:16.147Z,81.31
2018-10-19T10:46:16.306Z,81.51
2018-10-19T10:47:16.419Z,81.41
2018-10-19T10:48:16.554Z,80.64
2018-10-19T10:49:16.727Z,80.64
2018-10-19T10:50:16.826Z,81.02
2018-10-19T10:51:16.964Z,80.74
2018-10-19T10:52:17.104Z,80.64
2018-10-19T10:53:17.257Z,80.55
2018-10-19T10:54:17.388Z,80.83
2018-10-19T10:55:17.606Z,80.93
2018-10-19T10:56:17.665Z,81.12
2018-10-19T10:57:17.804Z,81.31
2018-10-19T10:58:17.946Z,80.20
2018-10-19T10:59:18.081Z,80.40
2018-10-19T11:00:18.265Z,79.72
2018-10-19T11:01:18.403Z,79.34
2018-10-19T11:02:18.579Z,79.24
2018-10-19T11:03:18.717Z,79.44
2018-10-19T11:04:18.885Z,79.44
2018-10-19T11:05:19.021Z,79.44
2018-10-19T11:06:19.158Z,79.44
2018-10-19T11:07:19.361Z,78.96
2018-10-19T11:08:19.449Z,78.28
2018-10-19T11:09:19.579Z,78.47
2018-10-19T11:10:19.724Z,78.28
2018-10-19T11:11:19.861Z,78.38
2018-10-19T11:12:19.991Z,78.19
2018-10-19T11:13:20.155Z,78.28
2018-10-19T11:14:20.289Z,78.96
2018-10-19T11:15:20.437Z,78.96
2018-10-19T11:16:20.568Z,78.57
2018-10-19T11:17:20.742Z,78.67
2018-10-19T11:18:20.901Z,77.84
2018-10-19T11:19:21.040Z,77.61
2018-10-19T11:20:21.185Z,77.17
2018-10-19T11:21:21.318Z,77.36
2018-10-19T11:22:21.466Z,77.36
2018-10-19T11:23:21.599Z,76.40
2018-10-19T11:24:21.741Z,77.08
2018-10-19T11:25:21.878Z,77.65
2018-10-19T11:26:22.016Z,77.75
2018-10-19T11:27:22.146Z,77.56
2018-10-19T11:28:22.290Z,76.79
2018-10-19T11:29:22.938Z,76.21
2018-10-19T11:30:22.584Z,75.92
2018-10-19T11:31:22.727Z,76.21
2018-10-19T11:32:22.862Z,76.02
2018-10-19T11:33:23.011Z,75.45
2018-10-19T11:34:23.163Z,75.73
2018-10-19T11:35:23.308Z,76.21
2018-10-19T11:36:23.446Z,76.12
2018-10-19T11:37:23.598Z,76.12
2018-10-19T11:38:23.743Z,76.31
2018-10-19T11:39:23.899Z,76.88
2018-10-19T11:40:24.049Z,76.79
2018-10-19T11:41:24.188Z,76.98
2018-10-19T11:42:24.324Z,77.17
2018-10-19T11:43:24.511Z,76.59
2018-10-19T11:44:24.643Z,76.69
2018-10-19T11:45:24.802Z,77.46
2018-10-19T11:46:24.936Z,76.69
2018-10-19T11:47:25.950Z,76.79
2018-10-19T11:48:25.154Z,76.50
2018-10-19T11:49:25.292Z,76.79
2018-10-19T11:50:25.447Z,77.36
2018-10-19T11:51:25.577Z,76.69
2018-10-19T11:52:25.721Z,76.21
2018-10-19T11:53:25.875Z,76.40
2018-10-19T11:54:26.021Z,75.82
2018-10-19T11:55:26.150Z,76.79
2018-10-19T11:56:26.288Z,76.82
2018-10-19T11:57:26.448Z,76.06
2018-10-19T11:58:26.584Z,75.77
2018-10-19T11:59:26.718Z,75.96
2018-10-19T12:00:26.869Z,75.29
2018-10-19T12:01:27.003Z,76.15
2018-10-19T12:02:27.175Z,74.62
2018-10-19T12:03:27.350Z,74.43
2018-10-19T12:04:27.443Z,73.69
2018-10-19T12:05:27.586Z,73.18
2018-10-19T12:06:27.724Z,72.92
2018-10-19T12:07:27.868Z,73.21
2018-10-19T12:08:28.007Z,73.50
2018-10-19T12:09:28.151Z,72.38
2018-10-19T12:10:28.326Z,71.91
2018-10-19T12:11:28.422Z,71.17
2018-10-19T12:12:28.595Z,71.17
2018-10-19T12:13:28.734Z,70.24
2018-10-19T12:14:28.874Z,69.47
2018-10-19T12:15:29.033Z,68.41
2018-10-19T12:16:29.232Z,68.03
2018-10-19T12:17:29.321Z,67.26
2018-10-19T12:18:29.468Z,67.07
2018-10-19T12:19:29.615Z,67.83
2018-10-19T12:20:29.754Z,68.03
2018-10-19T12:21:29.905Z,68.60
2018-10-19T12:22:30.045Z,68.70
2018-10-19T12:23:30.182Z,68.48
2018-10-19T12:24:30.320Z,67.65
2018-10-19T12:25:30.464Z,68.32
2018-10-19T12:26:30.611Z,67.83
2018-10-19T12:27:30.757Z,67.65
2018-10-19T12:28:30.927Z,67.35
2018-10-19T12:29:31.059Z,67.45
2018-10-19T12:30:31.203Z,67.26
2018-10-19T12:31:31.347Z,67.35
2018-10-19T12:32:31.501Z,68.09
2018-10-19T12:33:31.650Z,67.93
2018-10-19T12:34:31.799Z,67.74
2018-10-19T12:35:31.953Z,68.80
2018-10-19T12:36:32.072Z,69.18
2018-10-19T12:37:32.222Z,68.80
2018-10-19T12:38:32.361Z,68.51
2018-10-19T12:39:32.490Z,67.74
2018-10-19T12:40:32.670Z,67.65
2018-10-19T12:41:32.808Z,67.80
2018-10-19T12:42:32.962Z,68.38
2018-10-19T12:43:33.103Z,67.80
2018-10-19T12:44:33.253Z,68.48
2018-10-19T12:45:33.391Z,68.38
2018-10-19T12:46:33.528Z,67.80
2018-10-19T12:47:33.693Z,67.61
2018-10-19T12:48:33.886Z,68.29
2018-10-19T12:49:34.015Z,68.38
2018-10-19T12:50:34.165Z,68.29
2018-10-19T12:51:34.310Z,68.48
2018-10-19T12:52:34.491Z,68.48
2018-10-19T12:53:34.622Z,68.67
2018-10-19T12:54:34.839Z,67.93
2018-10-19T12:55:34.919Z,67.35
2018-10-19T12:56:35.062Z,66.78
2018-10-19T12:57:35.268Z,67.55